• Join FlightAware (Why Join?)
  • Login
  • US Flag GB Flag 
03:14 EDT


 

Airport Tracker/Info


-or-


 

Live Flight TrackerFlight Track Log ✈ CTL22 ✈ 19-Apr-2013 ✈ KBKL - KGRR

Flight Track Log - Related Links

Times and Time Zones

All times are in EDT time to prevent confusion due to time zone crossing. See the CTL22 flight status page for this flight to view local times or setup timezone preferences in your user account.

Time Position Orientation Groundspeed Altitude Reporting Facility
EDT Latitude Longitude Course Direction KTS MPH feet Rate Location/Type
21:56 41.5519 -81.7181 339° North 151 174 1,800  Level Cleveland Center
21:57 41.5789 -81.7461 322° Northwest 117 135 2,900 1,020 Climbing Cleveland Center
21:58 41.5972 -81.7881 300° West 126 145 3,900 480 Climbing Cleveland Center
21:59 41.6156 -81.8275 302° West 130 150 3,900  Level Cleveland Center
22:00 41.6378 -81.8750 302° West 132 152 3,900  Level Cleveland Center
22:00 41.6481 -81.9003 299° West 132 152 4,000 60 Climbing Cleveland Center
22:01 41.6583 -81.9200 305° West 132 152 4,000  Level Cleveland Center
22:02 41.6744 -81.9647 296° West 133 153 4,000  Level Cleveland Center
22:03 41.6928 -82.0042 302° West 135 155 4,000  Level Cleveland Center
22:04 41.7131 -82.0464 303° West 132 152 4,000  Level Cleveland Center
22:05 41.7353 -82.0969 301° West 134 154 4,000  Level Cleveland Center
22:06 41.7492 -82.1417 293° West 128 147 4,100  Climbing Cleveland Center
22:07 41.7675 -82.1783 304° West 132 152 4,000 -60 Descending Cleveland Center
22:08 41.7856 -82.2206 300° West 134 154 4,000  Level Cleveland Center
22:09 41.8039 -82.2600 302° West 129 148 4,000 -120 Level Cleveland Center
22:09 41.8119 -82.2742 307° West 128 147 3,900 -120 Descending Cleveland Center
22:11 41.8364 -82.3222 304° West 132 152 3,900 -60 Level Cleveland Center
22:12 41.8544 -82.3644 300° West 129 148 3,800  Descending Cleveland Center
22:12 41.8664 -82.3983 295° West 123 142 4,000 60 Climbing Cleveland Center
22:13 41.8867 -82.4408 303° West 124 143 4,000  Level Cleveland Center
22:15 41.9044 -82.4858 298° West 127 146 4,000  Level Cleveland Center
22:15 41.9186 -82.5197 299° West 125 144 4,000  Level Cleveland Center
22:16 41.9386 -82.5678 299° West 131 151 4,000 -60 Level Cleveland Center
22:18 41.9608 -82.6133 303° West 131 151 3,900  Descending Cleveland Center
22:19 41.9747 -82.6528 295° West 133 153 4,000  Climbing Cleveland Center
22:20 41.9906 -82.6981 295° West 130 150 3,900  Descending Cleveland Center
22:21 42.0083 -82.7461 296° West 127 146 4,000  Climbing Cleveland Center
22:22 42.0264 -82.7886 300° West 127 146 4,000  Level Cleveland Center
22:23 42.0442 -82.8339 298° West 133 153 4,000  Level Cleveland Center
22:24 42.0642 -82.8794 301° West 137 158 4,000 -60 Level Cleveland Center
22:25 42.0781 -82.9164 297° West 135 155 3,900 -60 Descending Cleveland Center
22:26 42.0958 -82.9644 297° West 128 147 3,900  Level Cleveland Center
22:27 42.1136 -83.0100 298° West 129 148 4,000  Climbing Cleveland Center
22:28 42.1333 -83.0611 298° West 133 153 4,000  Level Cleveland Center
22:29 42.1472 -83.0981 297° West 134 154 4,000 -60 Level Cleveland Center
22:30 42.1669 -83.1464 299° West 134 154 3,900  Descending Cleveland Center
22:31 42.1828 -83.1836 300° West 132 152 4,000  Climbing Cleveland Center
22:32 42.1964 -83.2289 292° West 130 150 3,900  Descending Cleveland Center
22:33 42.2056 -83.2769 284° West 129 148 4,000  Climbing Cleveland Center
22:34 42.2211 -83.3225 295° West 131 151 4,000  Level Cleveland Center
22:35 42.2306 -83.3622 288° West 131 151 4,100  Climbing Cleveland Center
22:36 42.2419 -83.4106 288° West 135 155 4,000  Descending Cleveland Center
22:37 42.2556 -83.4558 292° West 130 150 4,100  Climbing Cleveland Center
22:38 42.2689 -83.5014 292° West 129 148 4,000 -60 Descending Cleveland Center
22:39 42.2781 -83.5497 284° West 129 148 4,000  Level Cleveland Center
22:40 42.2917 -83.5894 295° West 129 148 4,100  Climbing Cleveland Center
22:41 42.3069 -83.6381 293° West 130 150 4,100 -60 Level Cleveland Center
22:42 42.3203 -83.6836 292° West 131 151 4,000 -120 Descending Cleveland Center
22:43 42.3317 -83.7292 289° West 130 150 3,900  Descending Cleveland Center
22:44 42.3431 -83.7747 289° West 129 148 4,000 -60 Climbing Cleveland Center
22:46 42.3701 -83.8563 294° West  Level FlightAware Approximate
22:53 42.4724 -84.1686 293° West  Level FlightAware Approximate
22:54 42.4862 -84.2137 293° West  Level FlightAware Approximate
22:55 42.5000 -84.2589 293° West  Level FlightAware Approximate
22:56 42.5138 -84.3040 293° West  Level FlightAware Approximate
22:57 42.5276 -84.3492 292° West  Level FlightAware Approximate
22:58 42.5414 -84.3944 292° West  Level FlightAware Approximate
22:59 42.5551 -84.4396 292° West  Level FlightAware Approximate
23:00 42.5688 -84.4848 292° West  Level FlightAware Approximate
23:01 42.5826 -84.5304 292° West  Level FlightAware Approximate
23:02 42.5964 -84.5759 292° West  Level FlightAware Approximate
23:03 42.6101 -84.6214 292° West  Level FlightAware Approximate
23:04 42.6238 -84.6670 292° West  Level FlightAware Approximate
23:04 42.6219 -84.7133 292° West 149 171 3,000  Level Chicago Center
23:05 42.6376 -84.7126 292° West  Level FlightAware Approximate
23:05 42.6331 -84.7583 289° West 128 147 3,000  Level Chicago Center
23:06 42.6512 -84.7582 292° West  Level FlightAware Approximate
23:06 42.6450 -84.8039 290° West 129 148 3,000  Level Chicago Center
23:07 42.6649 -84.8038 292° West  Level FlightAware Approximate
23:07 42.6581 -84.8472 292° West 127 146 2,900  Level Chicago Center
23:08 42.6786 -84.8495 292° West  Level FlightAware Approximate
23:08 42.6694 -84.8931 289° West 128 147 3,000  Level Chicago Center
23:09 42.6922 -84.8952 292° West  Level FlightAware Approximate
23:09 42.6836 -84.9372 294° West 128 147 3,000  Level Chicago Center
23:10 42.6986 -84.9897 291° West 125 144 3,000 -60 Level Chicago Center
23:11 42.7119 -85.0328 293° West 124 143 2,900  Descending Chicago Center
23:12 42.7258 -85.0775 293° West 127 146 3,000  Climbing Chicago Center
23:13 42.7394 -85.1228 292° West 130 150 2,900 -60 Descending Chicago Center
23:14 42.7539 -85.1669 294° West 129 148 2,900  Level Chicago Center
23:15 42.7669 -85.2119 292° West 128 147 3,000 -60 Climbing Chicago Center
23:16 42.7817 -85.2600 293° West 132 152 2,800 -240 Descending Chicago Center
23:17 42.7972 -85.3081 294° West 136 157 2,600 -180 Descending Chicago Center
23:18 42.8150 -85.3531 298° West 137 158 2,500 -300 Descending Chicago Center
23:19 42.8356 -85.3983 302° West 138 159 2,100 -300 Descending Chicago Center
23:20 42.8592 -85.4450 305° West 143 165 1,900 -540 Descending Chicago Center
23:21 42.8764 -85.4897 298° West 141 162 1,100 -360 Descending Chicago Center
23:22 42.8886 -85.5289 293° West 129 148 1,200 60 Climbing Chicago Center
23:24 42.8808 -85.5228 270° West  Level Estimated